Latest Weather Observations for Blackall

IDQ60801

Issued at 8:02 pm EST Thursday 2 July 2015 (issued every 30 minutes, with the page automatically refreshed every 10 minutes)

About weather observations | Map of weather stations | Latest weather observations for QLD | Other Formats
Station Details ID: 036034 Name: BLACKALL AIRPORT Lat: -24.43 Lon: 145.43 Height: 281.3 m
Data from the previous 72 hours. | See also: Recent months at Blackall
Date/Time
EST
Temp
°C
App
Temp
°C
Dew
Point
Rel
Hum
%
Delta-T
°C
Wind Press
QNH
hPa
Press
MSL
hPa
Rain
since 9 am
mm
Dir
 
Spd
km/h
Gust
km/h
Spd
kts
Gust
kts
02/08:00pm 15.6 11.4 5.5 51 4.9 SSE 17 24 9 13 1023.7 1023.5 0.0
02/07:30pm 15.7 12.5 5.3 50 5.0 S 11 17 6 9 1023.5 1023.3 0.0
02/07:00pm 16.3 12.8 5.3 48 5.3 S 13 17 7 9 1023.0 1022.8 0.0
02/06:30pm 16.5 13.8 5.5 48 5.3 S 9 13 5 7 1022.7 1022.4 0.0
02/06:00pm 17.5 14.5 5.8 46 5.8 SSE 11 17 6 9 1022.3 1022.0 0.0
02/05:30pm 18.4 14.2 5.6 43 6.3 SSE 17 24 9 13 1021.9 1021.6 0.0
02/05:00pm 19.0 14.8 5.5 41 6.7 S 17 22 9 12 1021.5 1021.3 0.0
02/04:30pm 19.6 15.0 5.6 40 7.0 S 19 26 10 14 1021.4 1021.2 0.0
02/04:00pm 19.7 15.0 5.0 38 7.2 S 19 30 10 16 1021.3 1021.1 0.0
02/03:30pm 19.9 15.1 4.8 37 7.4 S 19 30 10 16 1021.5 1021.3 0.0
02/03:00pm 20.6 16.2 4.6 35 7.9 SSE 17 26 9 14 1021.9 1021.6 0.0
02/02:30pm 20.3 15.5 4.8 36 7.7 S 19 30 10 16 1022.0 1021.7 0.0
02/02:00pm 20.2 16.5 4.7 36 7.6 S 13 22 7 12 1022.1 1021.8 0.0
02/01:30pm 19.7 16.5 5.0 38 7.3 SSE 11 22 6 12 1022.4 1022.1 0.0
02/01:00pm 19.3 16.3 6.1 42 6.6 SSE 11 20 6 11 1022.8 1022.5 0.0
02/12:30pm 18.3 14.6 6.5 46 5.9 SE 15 24 8 13 1023.5 1023.3 0.0
02/12:00pm 18.0 14.5 7.1 49 5.5 SE 15 20 8 11 1024.2 1024.0 0.0
02/11:30am 18.2 15.0 8.5 53 5.1 SE 15 20 8 11 1024.6 1024.4 0.0
02/11:00am 16.6 13.2 7.8 56 4.5 SE 15 24 8 13 1025.2 1025.0 0.0
02/10:30am 15.9 13.1 8.6 62 3.8 SSE 13 20 7 11 1025.6 1025.3 0.0
02/10:00am 14.5 11.8 8.9 69 2.9 SE 13 19 7 10 1025.8 1025.5 0.0
02/09:30am 13.6 11.3 9.1 74 2.3 SE 11 19 6 10 1025.9 1025.6 0.0
02/09:00am 12.1 9.4 9.1 82 1.5 SSE 13 17 7 9 1025.9 1025.6 0.0
02/08:30am 10.4 8.0 8.7 89 0.8 SSE 11 15 6 8 1025.9 1025.6 0.0
02/08:00am 8.8 6.7 8.4 97 0.2 S 9 13 5 7 1025.5 1025.2 0.0
02/07:30am 7.6 5.3 7.5 99 0.0 SSE 9 11 5 6 1025.1 1024.9 0.0
02/07:00am 6.6 4.5 5.9 95 0.3 SSE 6 7 3 4 1024.8 1024.6 0.0
02/06:30am 7.2 5.2 6.1 93 0.5 SSE 6 7 3 4 1024.4 1024.2 0.0
02/06:00am 8.1 6.1 7.3 95 0.4 SE 7 9 4 5 1024.0 1023.8 0.0
02/05:30am 8.8 6.7 8.4 97 0.2 SSE 9 13 5 7 1023.8 1023.6 0.0
02/05:00am 9.1 6.9 8.0 93 0.5 SE 9 13 5 7 1023.8 1023.6 0.0
02/04:30am 9.5 6.3 8.6 94 0.4 S 15 20 8 11 1023.9 1023.7 0.0
02/04:00am 9.5 7.1 8.6 94 0.4 S 11 13 6 7 1024.0 1023.8 0.0
02/03:30am 10.1 8.2 8.9 92 0.6 SSE 9 13 5 7 1023.9 1023.7 0.0
02/03:00am 10.4 8.5 9.0 91 0.7 SSE 9 11 5 6 1024.0 1023.8 0.0
02/02:30am 10.6 8.7 9.2 91 0.7 SSE 9 11 5 6 1024.2 1024.0 0.0
02/02:00am 11.1 8.9 9.5 90 0.8 SSE 11 15 6 8 1024.3 1024.1 0.0
02/01:30am 11.6 9.5 9.9 89 0.9 SE 11 15 6 8 1024.4 1024.2 0.0
02/01:00am 11.9 9.9 10.1 89 0.9 SSE 11 15 6 8 1024.6 1024.4 0.0
02/12:30am 11.9 9.9 10.1 89 0.9 SSE 11 15 6 8 1024.7 1024.5 0.0
02/12:00am 11.9 9.9 10.3 90 0.8 SSE 11 15 6 8 1024.9 1024.7 0.0
 
Date/Time
EST
Temp
°C
App
Temp
°C
Dew
Point
Rel
Hum
%
Delta-T
°C
Wind Press
QNH
hPa
Press
MSL
hPa
Rain
since 9 am
mm
Dir
 
Spd
km/h
Gust
km/h
Spd
kts
Gust
kts
01/11:30pm 12.3 10.6 10.0 86 1.2 SSE 9 11 5 6 1025.1 1024.9 0.0
01/11:00pm 13.0 11.4 10.2 83 1.5 SE 9 11 5 6 1025.0 1024.8 0.0
01/10:30pm 13.8 11.5 10.4 80 1.8 SE 13 19 7 10 1025.2 1025.0 0.0
01/10:00pm 14.5 11.5 10.7 78 2.0 SE 17 24 9 13 1024.9 1024.7 0.0
01/09:30pm 14.8 11.8 10.8 77 2.1 SE 17 24 9 13 1024.9 1024.7 0.0
01/09:00pm 15.5 12.6 10.9 74 2.5 SE 17 20 9 11 1024.8 1024.6 0.0
01/08:30pm 16.2 13.2 10.5 69 3.1 SE 17 22 9 12 1024.7 1024.5 0.0
01/08:00pm 16.9 13.8 10.3 65 3.5 SE 17 20 9 11 1024.3 1024.1 0.0
01/07:30pm 16.5 14.8 9.7 64 3.6 SE 9 13 5 7 1024.1 1023.9 0.0
01/07:00pm 17.4 15.6 9.6 60 4.1 SE 9 13 5 7 1023.8 1023.6 0.0
01/06:30pm 18.2 16.0 9.3 56 4.7 SE 11 13 6 7 1023.5 1023.3 0.0
01/06:00pm 19.2 16.2 9.4 53 5.2 SSE 15 19 8 10 1023.3 1023.1 0.0
01/05:30pm 20.1 16.7 9.1 49 5.9 SSE 17 22 9 12 1023.1 1022.9 0.0
01/05:00pm 21.1 17.0 8.7 45 6.6 SSE 20 28 11 15 1022.8 1022.5 0.0
01/04:30pm 21.9 17.8 7.7 40 7.5 SSE 19 24 10 13 1022.6 1022.3 0.0
01/04:00pm 22.2 17.8 7.2 38 7.8 S 20 26 11 14 1022.5 1022.2 0.0
01/03:30pm 22.8 18.5 7.0 36 8.3 S 19 28 10 15 1022.7 1022.4 0.0
01/03:00pm 22.6 18.3 8.0 39 7.7 SSE 20 30 11 16 1022.7 1022.4 0.0
01/02:30pm 22.8 19.0 8.9 41 7.5 SSE 19 26 10 14 1023.1 1022.9 0.0
01/02:00pm 22.6 19.0 9.7 44 7.1 S 19 28 10 15 1023.3 1023.1 0.0
01/01:30pm 22.6 19.1 10.1 45 6.9 S 19 30 10 16 1023.7 1023.5 0.0
01/01:00pm 22.1 19.4 10.3 47 6.5 SSE 15 24 8 13 1024.1 1023.9 0.0
01/12:30pm 21.9 19.4 11.0 50 6.1 SSE 15 20 8 11 1024.6 1024.4 0.0
01/12:00pm 21.2 18.6 10.7 51 5.8 S 15 22 8 12 1025.2 1025.0 0.0
01/11:30am 20.9 19.6 11.3 54 5.4 SSE 9 20 5 11 1025.7 1025.4 0.0
01/11:00am 20.5 18.2 10.6 53 5.4 SSE 13 19 7 10 1026.0 1025.8 0.0
01/10:30am 19.7 17.6 11.2 58 4.7 SE 13 19 7 10 1026.2 1026.0 0.0
01/10:00am 18.8 16.2 11.9 64 3.8 ESE 17 20 9 11 1026.5 1026.3 0.0
01/09:30am 17.0 15.1 11.9 72 2.8 ESE 13 19 7 10 1026.5 1026.2 0.0
01/09:00am 15.5 13.8 12.3 81 1.8 SE 13 17 7 9 1026.3 1026.0 0.0
01/08:30am 14.3 12.6 12.3 88 1.1 SE 13 19 7 10 1026.0 1025.6 0.0
01/08:00am 13.2 11.9 12.6 96 0.3 SSE 11 17 6 9 1025.7 1025.3 0.0
01/07:30am 12.4 11.4 12.2 99 0.1 SSE 9 11 5 6 1025.5 1025.1 0.0
01/07:00am 12.3 10.9 12.1 99 0.1 SSE 11 13 6 7 1025.1 1024.8 0.0
01/06:30am 12.4 11.0 12.2 99 0.1 SSE 11 15 6 8 1024.8 1024.5 0.0
01/06:00am 12.2 11.1 12.0 99 0.1 SSE 9 11 5 6 1024.5 1024.2 0.0
01/05:30am 12.6 11.6 12.3 98 0.2 SSE 9 9 5 5 1024.2 1023.9 0.0
01/05:00am 12.9 12.0 12.6 98 0.2 SSE 9 11 5 6 1024.1 1023.8 0.0
01/04:30am 13.1 12.1 12.3 95 0.4 SSE 9 11 5 6 1024.2 1023.9 0.0
01/04:00am 13.4 12.7 12.1 92 0.7 S 7 9 4 5 1024.2 1023.9 0.0
01/03:30am 13.9 13.2 12.1 89 1.0 SE 7 9 4 5 1024.2 1023.9 0.0
01/03:00am 14.5 13.6 12.5 88 1.1 ESE 9 13 5 7 1024.1 1023.8 0.0
01/02:30am 15.1 14.2 12.6 85 1.4 ESE 9 13 5 7 1024.3 1024.0 0.0
01/02:00am 15.5 13.9 12.8 84 1.5 ESE 13 17 7 9 1024.7 1024.4 0.0
01/01:30am 15.4 14.4 13.4 88 1.1 ESE 11 17 6 9 1024.8 1024.5 0.0
01/01:00am 15.2 13.9 13.6 90 0.9 SE 13 17 7 9 1025.1 1024.8 0.0
01/12:30am 15.2 13.8 13.4 89 1.0 SSE 13 17 7 9 1025.4 1025.0 0.0
01/12:00am 15.2 14.2 13.4 89 1.0 SSE 11 17 6 9 1025.4 1025.0 0.0
 
Date/Time
EST
Temp
°C
App
Temp
°C
Dew
Point
Rel
Hum
%
Delta-T
°C
Wind Press
QNH
hPa
Press
MSL
hPa
Rain
since 9 am
mm
Dir
 
Spd
km/h
Gust
km/h
Spd
kts
Gust
kts
30/11:30pm 15.5 15.2 13.3 87 1.2 SSE 7 9 4 5 1025.5 1025.1 0.0
30/11:00pm 15.6 14.0 12.9 84 1.5 ESE 13 15 7 8 1025.4 1025.0 0.0
30/10:30pm 15.9 14.7 12.8 82 1.7 SE 11 15 6 8 1025.6 1025.2 0.0
30/10:00pm 16.0 14.7 12.4 79 2.0 SE 11 13 6 7 1025.6 1025.2 0.0
30/09:30pm 16.6 14.6 12.6 77 2.2 SE 15 19 8 10 1025.5 1025.1 0.0
30/09:00pm 16.8 14.8 12.7 77 2.3 SE 15 20 8 11 1025.5 1025.1 0.0
30/08:30pm 17.1 14.7 12.8 76 2.4 SE 17 28 9 15 1025.4 1025.0 0.0
30/08:00pm 17.9 15.0 13.0 73 2.8 SSE 20 28 11 15 1025.1 1024.8 0.0
30/07:30pm 18.4 18.2 13.0 71 3.1 ESE 6 7 3 4 1024.5 1024.2 0.0
30/07:00pm 18.9 19.1 13.1 69 3.3 ESE 4 7 2 4 1024.3 1024.0 0.0
30/06:30pm 19.8 19.7 13.3 66 3.7 ENE 6 7 3 4 1023.9 1023.6 0.0
30/06:00pm 20.3 20.0 12.8 62 4.3 NNE 6 7 3 4 1023.6 1023.3 0.0
30/05:30pm 20.7 20.4 12.7 60 4.6 N 6 9 3 5 1023.5 1023.2 0.0
30/05:00pm 21.5 20.6 12.6 57 5.1 NNE 9 13 5 7 1023.3 1023.0 0.0
30/04:30pm 21.5 20.3 12.9 58 5.0 NNE 11 13 6 7 1023.0 1022.7 0.0
30/04:00pm 22.0 21.0 12.3 54 5.5 NE 9 15 5 8 1022.9 1022.5 0.0
30/03:30pm 22.6 21.0 12.8 54 5.7 NNE 13 19 7 10 1022.9 1022.5 0.0
30/03:00pm 22.2 20.9 12.5 54 5.6 NE 11 17 6 9 1023.1 1022.8 0.0
30/02:30pm 22.4 21.2 12.9 55 5.5 NE 11 20 6 11 1023.1 1022.8 0.0
30/02:00pm 22.2 21.4 13.0 56 5.3 NNE 9 13 5 7 1023.3 1023.0 0.0
30/01:30pm 21.5 20.6 12.6 57 5.1 NNE 9 15 5 8 1023.7 1023.4 0.0
30/01:00pm 21.1 19.5 12.8 59 4.8 NNE 13 17 7 9 1024.0 1023.7 0.0
30/12:30pm 21.1 18.7 12.8 59 4.8 NE 17 20 9 11 1024.3 1024.0 0.0
30/12:00pm 20.8 19.0 13.3 62 4.3 NE 15 20 8 11 1024.9 1024.6 0.0
30/11:30am 19.9 17.6 12.9 64 4.0 NNE 17 20 9 11 1025.2 1024.9 0.0
30/11:00am 19.4 16.9 12.4 64 3.9 NE 17 26 9 14 1025.4 1025.0 0.0
30/10:30am 19.3 16.9 13.9 71 3.1 NE 19 24 10 13 1025.5 1025.1 0.0
30/10:00am 18.7 16.4 13.1 70 3.2 NE 17 24 9 13 1025.5 1025.1 0.0
30/09:30am 18.1 15.7 13.8 76 2.5 NE 19 28 10 15 1025.5 1025.1 0.0
30/09:00am 17.7 15.7 14.0 79 2.1 ENE 17 22 9 12 1025.1 1024.8 0.8
30/08:30am 17.0 16.2 13.9 82 1.8 ENE 11 17 6 9 1025.1 1024.8 0.8
30/08:00am 16.4 14.3 13.7 84 1.5 NE 17 20 9 11 1024.6 1024.3 0.8
30/07:30am 16.4 14.7 13.7 84 1.5 ENE 15 19 8 10 1024.7 1024.4 0.8
30/07:00am 16.2 15.4 13.9 86 1.3 E 11 15 6 8 1024.5 1024.2 0.8
30/06:30am 16.1 15.7 14.1 88 1.1 E 9 13 5 7 1024.3 1024.0 0.8
30/06:00am 16.2 15.2 14.6 90 0.9 E 13 17 7 9 1024.1 1023.8 0.8
30/05:30am 16.2 16.0 14.6 90 0.9 E 9 9 5 5 1024.3 1024.0 0.8
30/05:00am 16.5 16.2 14.3 87 1.3 ENE 9 13 5 7 1024.2 1023.9 0.4
30/04:30am 16.9 16.5 14.0 83 1.7 ENE 9 13 5 7 1024.2 1023.9 0.0
30/04:00am 17.0 14.9 13.7 81 1.9 ENE 17 20 9 11 1024.1 1023.8 0.0
30/03:30am 16.7 14.0 13.6 82 1.8 NE 20 26 11 14 1024.2 1023.9 0.0
30/03:16am 16.4 11.5 12.4 77 2.2 E 30 48 16 26 1023.9 1023.6 0.0
30/03:07am 17.0 12.0 10.8 67 3.4 ENE 28 48 15 26 1024.0 1023.7 0.0
30/03:00am 17.1 14.9 13.2 78 2.2 NE 17 30 9 16 1024.3 1024.0 0.0
30/02:30am 17.4 15.0 13.7 79 2.1 NE 19 24 10 13 1024.5 1024.2 0.0
30/02:00am 18.8 15.1 12.8 68 3.4 ENE 24 33 13 18 1024.4 1024.1 0.0
30/01:30am 19.0 16.2 12.7 67 3.6 ENE 19 24 10 13 1024.5 1024.2 0.0
30/01:00am 19.1 16.7 12.8 67 3.6 E 17 22 9 12 1024.5 1024.2 0.0
30/12:30am 19.1 16.5 13.1 68 3.4 ENE 19 24 10 13 1024.3 1024.0 0.0
30/12:00am 19.6 16.6 12.1 62 4.2 ENE 19 26 10 14 1024.5 1024.2 0.0
 
Date/Time
EST
Temp
°C
App
Temp
°C
Dew
Point
Rel
Hum
%
Delta-T
°C
Wind Press
QNH
hPa
Press
MSL
hPa
Rain
since 9 am
mm
Dir
 
Spd
km/h
Gust
km/h
Spd
kts
Gust
kts
29/11:30pm 20.0 17.9 11.2 57 4.9 ENE 13 19 7 10 1024.5 1024.2 0.0
29/11:00pm 20.2 18.1 11.1 56 5.0 ENE 13 17 7 9 1024.6 1024.3 0.0
29/10:30pm 20.5 18.0 11.2 55 5.2 E 15 19 8 10 1024.4 1024.1 0.0
29/10:00pm 20.5 18.0 10.9 54 5.3 E 15 20 8 11 1024.3 1024.0 0.0
29/09:30pm 20.8 17.7 10.3 51 5.8 ENE 17 20 9 11 1024.1 1023.8 0.0
29/09:00pm 20.6 17.8 10.1 51 5.7 ENE 15 19 8 10 1024.4 1024.1 0.0
29/08:30pm 20.8 18.0 10.0 50 5.9 ENE 15 20 8 11 1024.2 1023.9 0.0

Other Formats:

Comma delimited format used in spreadsheet applications
http://www.bom.gov.au/fwo/IDQ60801/IDQ60801.95351.axf

JavaScript Object Notation format (JSON) in row-major order
http://www.bom.gov.au/fwo/IDQ60801/IDQ60801.95351.json